sensor_id;sensor_type;location;lat;lon;timestamp;pressure;altitude;pressure_sealevel;temperature;humidity
65151;BME280;51918;51.856;0.150;2023-04-22T00:04:24;99876.50;;;7.25;72.41
65151;BME280;51918;51.856;0.150;2023-04-22T00:09:26;99875.50;;;7.18;73.04
65151;BME280;51918;51.856;0.150;2023-04-22T00:14:26;99863.97;;;7.14;73.32
65151;BME280;51918;51.856;0.150;2023-04-22T00:19:40;99855.66;;;7.12;73.85
65151;BME280;51918;51.856;0.150;2023-04-22T00:24:42;99864.59;;;7.08;74.15
65151;BME280;51918;51.856;0.150;2023-04-22T00:29:52;99857.38;;;7.03;73.83
65151;BME280;51918;51.856;0.150;2023-04-22T00:34:53;99855.13;;;6.92;74.00
65151;BME280;51918;51.856;0.150;2023-04-22T00:40:12;99845.81;;;6.82;74.28
65151;BME280;51918;51.856;0.150;2023-04-22T00:45:26;99841.63;;;6.73;74.75
65151;BME280;51918;51.856;0.150;2023-04-22T00:50:27;99834.38;;;6.60;74.64
65151;BME280;51918;51.856;0.150;2023-04-22T00:56:01;99824.91;;;6.53;75.59
65151;BME280;51918;51.856;0.150;2023-04-22T01:01:14;99824.41;;;6.41;75.98
65151;BME280;51918;51.856;0.150;2023-04-22T01:07:00;99810.69;;;6.24;76.69
65151;BME280;51918;51.856;0.150;2023-04-22T01:12:02;99797.72;;;6.17;76.40
65151;BME280;51918;51.856;0.150;2023-04-22T01:17:03;99794.16;;;6.10;76.61
65151;BME280;51918;51.856;0.150;2023-04-22T01:22:04;99789.00;;;6.02;76.76
65151;BME280;51918;51.856;0.150;2023-04-22T01:27:08;99789.56;;;5.88;76.99
65151;BME280;51918;51.856;0.150;2023-04-22T01:32:32;99777.84;;;5.77;78.14
65151;BME280;51918;51.856;0.150;2023-04-22T01:37:52;99770.63;;;5.72;77.59
65151;BME280;51918;51.856;0.150;2023-04-22T01:42:54;99766.41;;;5.63;77.67
65151;BME280;51918;51.856;0.150;2023-04-22T01:47:55;99762.19;;;5.54;77.46
65151;BME280;51918;51.856;0.150;2023-04-22T01:52:56;99761.78;;;5.41;77.45
65151;BME280;51918;51.856;0.150;2023-04-22T01:58:01;99761.03;;;5.30;78.07
65151;BME280;51918;51.856;0.150;2023-04-22T02:03:02;99756.66;;;5.23;78.17
65151;BME280;51918;51.856;0.150;2023-04-22T02:08:02;99766.81;;;5.14;77.99
65151;BME280;51918;51.856;0.150;2023-04-22T02:13:04;99753.31;;;5.04;78.61
65151;BME280;51918;51.856;0.150;2023-04-22T02:18:05;99761.00;;;4.94;78.91
65151;BME280;51918;51.856;0.150;2023-04-22T02:23:06;99762.84;;;4.84;78.53
65151;BME280;51918;51.856;0.150;2023-04-22T02:28:08;99776.41;;;4.75;79.51
65151;BME280;51918;51.856;0.150;2023-04-22T02:33:08;99774.16;;;4.72;80.12
65151;BME280;51918;51.856;0.150;2023-04-22T02:38:09;99768.03;;;4.65;80.26
65151;BME280;51918;51.856;0.150;2023-04-22T02:43:11;99771.69;;;4.52;82.22
65151;BME280;51918;51.856;0.150;2023-04-22T02:48:12;99766.09;;;4.49;81.57
65151;BME280;51918;51.856;0.150;2023-04-22T02:53:12;99761.13;;;4.47;81.65
65151;BME280;51918;51.856;0.150;2023-04-22T02:58:14;99761.41;;;4.44;80.86
65151;BME280;51918;51.856;0.150;2023-04-22T03:03:15;99757.84;;;4.37;80.29
65151;BME280;51918;51.856;0.150;2023-04-22T03:08:16;99743.25;;;4.29;80.14
65151;BME280;51918;51.856;0.150;2023-04-22T03:13:17;99738.28;;;4.28;80.22
65151;BME280;51918;51.856;0.150;2023-04-22T03:18:18;99728.41;;;4.25;79.92
65151;BME280;51918;51.856;0.150;2023-04-22T03:23:19;99725.47;;;4.20;79.99
65151;BME280;51918;51.856;0.150;2023-04-22T03:28:25;99720.94;;;4.13;80.15
65151;BME280;51918;51.856;0.150;2023-04-22T03:33:26;99732.47;;;4.08;80.19
65151;BME280;51918;51.856;0.150;2023-04-22T03:38:27;99724.59;;;4.01;80.75
65151;BME280;51918;51.856;0.150;2023-04-22T03:43:28;99709.97;;;3.93;80.55
65151;BME280;51918;51.856;0.150;2023-04-22T03:48:32;99709.72;;;3.87;80.55
65151;BME280;51918;51.856;0.150;2023-04-22T03:53:32;99700.09;;;3.81;80.08
65151;BME280;51918;51.856;0.150;2023-04-22T03:58:57;99699.09;;;3.64;79.89
65151;BME280;51918;51.856;0.150;2023-04-22T04:04:00;99688.09;;;3.63;81.39
65151;BME280;51918;51.856;0.150;2023-04-22T04:09:01;99703.09;;;3.66;82.38
65151;BME280;51918;51.856;0.150;2023-04-22T04:14:03;99706.81;;;3.72;83.47
65151;BME280;51918;51.856;0.150;2023-04-22T04:19:04;99699.31;;;3.80;84.44
65151;BME280;51918;51.856;0.150;2023-04-22T04:24:05;99689.78;;;3.92;85.00
65151;BME280;51918;51.856;0.150;2023-04-22T04:29:07;99685.47;;;4.02;85.70
65151;BME280;51918;51.856;0.150;2023-04-22T04:34:08;99682.78;;;4.13;85.99
65151;BME280;51918;51.856;0.150;2023-04-22T04:39:09;99677.34;;;4.26;86.54
65151;BME280;51918;51.856;0.150;2023-04-22T04:44:10;99681.94;;;4.41;86.94
65151;BME280;51918;51.856;0.150;2023-04-22T04:49:11;99686.44;;;4.56;86.54
65151;BME280;51918;51.856;0.150;2023-04-22T04:54:12;99679.69;;;4.65;87.11
65151;BME280;51918;51.856;0.150;2023-04-22T04:59:14;99676.13;;;4.76;87.34
65151;BME280;51918;51.856;0.150;2023-04-22T05:04:14;99687.84;;;4.87;87.24
65151;BME280;51918;51.856;0.150;2023-04-22T05:09:15;99697.97;;;4.96;87.66
65151;BME280;51918;51.856;0.150;2023-04-22T05:14:17;99695.22;;;5.08;87.91
65151;BME280;51918;51.856;0.150;2023-04-22T05:19:18;99693.09;;;5.21;87.70
65151;BME280;51918;51.856;0.150;2023-04-22T05:24:19;99689.19;;;5.35;87.60
65151;BME280;51918;51.856;0.150;2023-04-22T05:29:22;99689.41;;;5.42;88.01
65151;BME280;51918;51.856;0.150;2023-04-22T05:34:22;99695.06;;;5.53;87.91
65151;BME280;51918;51.856;0.150;2023-04-22T05:39:23;99699.63;;;5.68;87.91
65151;BME280;51918;51.856;0.150;2023-04-22T05:44:25;99706.53;;;5.75;87.86
65151;BME280;51918;51.856;0.150;2023-04-22T05:49:26;99688.91;;;5.90;87.98
65151;BME280;51918;51.856;0.150;2023-04-22T05:54:27;99689.94;;;6.06;88.34
65151;BME280;51918;51.856;0.150;2023-04-22T05:59:29;99694.31;;;6.21;87.71
65151;BME280;51918;51.856;0.150;2023-04-22T06:04:30;99686.53;;;6.31;87.98
65151;BME280;51918;51.856;0.150;2023-04-22T06:09:30;99696.00;;;6.39;87.97
65151;BME280;51918;51.856;0.150;2023-04-22T06:14:32;99709.63;;;6.48;87.90
65151;BME280;51918;51.856;0.150;2023-04-22T06:19:33;99705.34;;;6.65;87.53
65151;BME280;51918;51.856;0.150;2023-04-22T06:24:33;99702.00;;;6.72;86.67
65151;BME280;51918;51.856;0.150;2023-04-22T06:29:36;99698.34;;;6.83;87.27
65151;BME280;51918;51.856;0.150;2023-04-22T06:34:36;99684.13;;;6.97;87.24
65151;BME280;51918;51.856;0.150;2023-04-22T06:39:37;99678.56;;;7.10;87.26
65151;BME280;51918;51.856;0.150;2023-04-22T06:44:39;99665.63;;;7.28;87.52
65151;BME280;51918;51.856;0.150;2023-04-22T06:49:39;99654.25;;;7.47;87.32
65151;BME280;51918;51.856;0.150;2023-04-22T06:54:40;99659.31;;;7.63;86.86
65151;BME280;51918;51.856;0.150;2023-04-22T06:59:42;99688.38;;;7.78;85.06
65151;BME280;51918;51.856;0.150;2023-04-22T07:04:42;99699.75;;;7.92;85.65
65151;BME280;51918;51.856;0.150;2023-04-22T07:09:43;99691.03;;;8.10;84.75
65151;BME280;51918;51.856;0.150;2023-04-22T07:14:48;99683.44;;;8.24;84.89
65151;BME280;51918;51.856;0.150;2023-04-22T07:19:49;99683.38;;;8.41;83.31
65151;BME280;51918;51.856;0.150;2023-04-22T07:24:49;99681.00;;;8.39;82.31
65151;BME280;51918;51.856;0.150;2023-04-22T07:29:51;99690.25;;;8.49;82.30
65151;BME280;51918;51.856;0.150;2023-04-22T07:34:52;99693.69;;;8.64;83.21
65151;BME280;51918;51.856;0.150;2023-04-22T07:39:52;99700.53;;;8.95;83.93
65151;BME280;51918;51.856;0.150;2023-04-22T07:44:54;99709.59;;;9.05;80.85
65151;BME280;51918;51.856;0.150;2023-04-22T07:49:55;99704.03;;;9.02;79.89
65151;BME280;51918;51.856;0.150;2023-04-22T07:54:56;99702.47;;;9.16;79.06
65151;BME280;51918;51.856;0.150;2023-04-22T07:59:58;99696.69;;;9.37;79.66
65151;BME280;51918;51.856;0.150;2023-04-22T08:04:58;99696.03;;;9.58;77.68
65151;BME280;51918;51.856;0.150;2023-04-22T08:09:59;99704.69;;;9.72;75.66
65151;BME280;51918;51.856;0.150;2023-04-22T08:15:01;99705.59;;;9.79;75.54
65151;BME280;51918;51.856;0.150;2023-04-22T08:20:02;99704.88;;;9.70;76.21
65151;BME280;51918;51.856;0.150;2023-04-22T08:25:04;99697.75;;;10.10;75.90
65151;BME280;51918;51.856;0.150;2023-04-22T08:30:08;99691.06;;;10.31;74.10
65151;BME280;51918;51.856;0.150;2023-04-22T08:35:09;99691.97;;;10.59;72.52
65151;BME280;51918;51.856;0.150;2023-04-22T08:40:10;99679.81;;;10.89;71.56
65151;BME280;51918;51.856;0.150;2023-04-22T08:45:12;99669.78;;;11.23;70.01
65151;BME280;51918;51.856;0.150;2023-04-22T08:50:13;99670.53;;;11.73;70.74
65151;BME280;51918;51.856;0.150;2023-04-22T08:55:13;99661.25;;;12.33;69.01
65151;BME280;51918;51.856;0.150;2023-04-22T09:00:16;99663.78;;;12.95;65.68
65151;BME280;51918;51.856;0.150;2023-04-22T09:05:19;99669.66;;;13.69;64.35
65151;BME280;51918;51.856;0.150;2023-04-22T09:10:21;99657.00;;;14.51;61.67
65151;BME280;51918;51.856;0.150;2023-04-22T09:15:23;99657.16;;;15.13;59.84
65151;BME280;51918;51.856;0.150;2023-04-22T09:20:25;99658.59;;;15.71;56.25
65151;BME280;51918;51.856;0.150;2023-04-22T09:25:26;99651.16;;;16.41;55.07
65151;BME280;51918;51.856;0.150;2023-04-22T09:30:29;99645.63;;;16.92;53.43
65151;BME280;51918;51.856;0.150;2023-04-22T09:35:32;99636.16;;;16.97;49.47
65151;BME280;51918;51.856;0.150;2023-04-22T09:40:33;99643.13;;;17.44;51.43
65151;BME280;51918;51.856;0.150;2023-04-22T09:45:37;99644.28;;;17.36;47.16
65151;BME280;51918;51.856;0.150;2023-04-22T09:50:40;99644.25;;;17.48;48.86
65151;BME280;51918;51.856;0.150;2023-04-22T09:55:43;99631.44;;;17.70;47.47
65151;BME280;51918;51.856;0.150;2023-04-22T10:00:48;99636.00;;;18.03;48.98
65151;BME280;51918;51.856;0.150;2023-04-22T10:05:49;99631.28;;;18.97;46.70
65151;BME280;51918;51.856;0.150;2023-04-22T10:10:50;99636.66;;;19.68;43.05
65151;BME280;51918;51.856;0.150;2023-04-22T10:15:54;99635.03;;;19.84;44.37
65151;BME280;51918;51.856;0.150;2023-04-22T10:20:56;99630.69;;;20.49;42.37
65151;BME280;51918;51.856;0.150;2023-04-22T10:25:58;99623.59;;;20.77;41.35
65151;BME280;51918;51.856;0.150;2023-04-22T10:31:04;99621.44;;;21.06;39.00
65151;BME280;51918;51.856;0.150;2023-04-22T10:36:06;99617.84;;;21.17;40.23
65151;BME280;51918;51.856;0.150;2023-04-22T10:41:13;99624.59;;;21.71;39.25
65151;BME280;51918;51.856;0.150;2023-04-22T10:51:54;99623.91;;;21.28;36.05
65151;BME280;51918;51.856;0.150;2023-04-22T10:57:01;99628.13;;;21.34;34.54
65151;BME280;51918;51.856;0.150;2023-04-22T11:02:04;99626.75;;;21.21;35.32
65151;BME280;51918;51.856;0.150;2023-04-22T11:07:28;99621.06;;;20.92;34.19
65151;BME280;51918;51.856;0.150;2023-04-22T11:12:42;99616.88;;;20.91;35.22
65151;BME280;51918;51.856;0.150;2023-04-22T11:17:44;99613.50;;;21.38;36.92
65151;BME280;51918;51.856;0.150;2023-04-22T11:22:49;99611.09;;;22.36;36.00
65151;BME280;51918;51.856;0.150;2023-04-22T11:27:51;99605.56;;;22.83;33.58
65151;BME280;51918;51.856;0.150;2023-04-22T11:32:54;99603.41;;;23.06;33.08
65151;BME280;51918;51.856;0.150;2023-04-22T11:37:57;99609.88;;;23.44;34.19
65151;BME280;51918;51.856;0.150;2023-04-22T11:42:59;99597.38;;;24.15;33.06
65151;BME280;51918;51.856;0.150;2023-04-22T11:48:02;99600.56;;;24.75;31.76
65151;BME280;51918;51.856;0.150;2023-04-22T11:53:13;99606.13;;;24.98;33.20
65151;BME280;51918;51.856;0.150;2023-04-22T11:58:15;99614.94;;;25.74;30.45
65151;BME280;51918;51.856;0.150;2023-04-22T12:03:18;99618.16;;;25.71;26.43
65151;BME280;51918;51.856;0.150;2023-04-22T12:08:23;99612.25;;;25.80;26.21
65151;BME280;51918;51.856;0.150;2023-04-22T12:13:26;99616.94;;;24.96;24.57
65151;BME280;51918;51.856;0.150;2023-04-22T12:18:28;99613.91;;;23.76;27.99
65151;BME280;51918;51.856;0.150;2023-04-22T12:23:40;99613.06;;;23.91;28.09
65151;BME280;51918;51.856;0.150;2023-04-22T12:28:41;99618.59;;;24.29;29.24
65151;BME280;51918;51.856;0.150;2023-04-22T12:33:43;99618.59;;;24.29;29.54
65151;BME280;51918;51.856;0.150;2023-04-22T12:38:45;99615.34;;;24.37;28.88
65151;BME280;51918;51.856;0.150;2023-04-22T12:43:46;99614.09;;;24.29;27.83
65151;BME280;51918;51.856;0.150;2023-04-22T12:48:46;99609.97;;;25.06;30.14
65151;BME280;51918;51.856;0.150;2023-04-22T12:53:48;99610.97;;;25.77;28.08
65151;BME280;51918;51.856;0.150;2023-04-22T12:58:49;99616.44;;;25.81;26.74
65151;BME280;51918;51.856;0.150;2023-04-22T13:03:49;99615.47;;;25.33;27.59
65151;BME280;51918;51.856;0.150;2023-04-22T13:08:51;99611.13;;;25.00;28.24
65151;BME280;51918;51.856;0.150;2023-04-22T13:13:52;99605.63;;;24.38;28.17
65151;BME280;51918;51.856;0.150;2023-04-22T13:18:53;99606.16;;;24.05;26.55
65151;BME280;51918;51.856;0.150;2023-04-22T13:23:55;99610.47;;;23.81;28.13
65151;BME280;51918;51.856;0.150;2023-04-22T13:28:55;99612.53;;;23.89;28.93
65151;BME280;51918;51.856;0.150;2023-04-22T13:33:56;99606.34;;;24.14;28.34
65151;BME280;51918;51.856;0.150;2023-04-22T13:38:58;99606.91;;;24.06;26.30
65151;BME280;51918;51.856;0.150;2023-04-22T13:43:59;99603.84;;;24.33;26.79
65151;BME280;51918;51.856;0.150;2023-04-22T13:49:00;99601.16;;;24.38;27.10
65151;BME280;51918;51.856;0.150;2023-04-22T13:54:02;99608.47;;;23.62;25.54
65151;BME280;51918;51.856;0.150;2023-04-22T13:59:03;99616.88;;;22.79;26.31
65151;BME280;51918;51.856;0.150;2023-04-22T14:04:03;99608.72;;;22.39;27.92
65151;BME280;51918;51.856;0.150;2023-04-22T14:09:05;99609.25;;;22.05;28.83
65151;BME280;51918;51.856;0.150;2023-04-22T14:14:06;99602.91;;;21.76;28.79
65151;BME280;51918;51.856;0.150;2023-04-22T14:19:06;99612.91;;;21.26;28.41
65151;BME280;51918;51.856;0.150;2023-04-22T14:24:08;99596.31;;;21.05;29.93
65151;BME280;51918;51.856;0.150;2023-04-22T14:29:09;99592.00;;;20.83;29.75
65151;BME280;51918;51.856;0.150;2023-04-22T14:34:09;99589.97;;;20.53;29.51
65151;BME280;51918;51.856;0.150;2023-04-22T14:39:11;99591.34;;;20.61;29.66
65151;BME280;51918;51.856;0.150;2023-04-22T14:44:13;99586.59;;;20.58;29.61
65151;BME280;51918;51.856;0.150;2023-04-22T14:49:13;99589.19;;;20.53;29.79
65151;BME280;51918;51.856;0.150;2023-04-22T14:54:15;99591.16;;;20.35;29.65
65151;BME280;51918;51.856;0.150;2023-04-22T14:59:16;99591.88;;;20.03;30.07
65151;BME280;51918;51.856;0.150;2023-04-22T15:04:17;99594.88;;;19.90;30.88
65151;BME280;51918;51.856;0.150;2023-04-22T15:09:19;99596.06;;;19.55;30.62
65151;BME280;51918;51.856;0.150;2023-04-22T15:14:19;99600.69;;;19.09;30.82
65151;BME280;51918;51.856;0.150;2023-04-22T15:19:20;99593.78;;;18.98;31.89
65151;BME280;51918;51.856;0.150;2023-04-22T15:24:22;99589.50;;;18.92;31.60
65151;BME280;51918;51.856;0.150;2023-04-22T15:29:23;99590.72;;;18.67;32.08
65151;BME280;51918;51.856;0.150;2023-04-22T15:34:23;99587.22;;;18.44;33.49
65151;BME280;51918;51.856;0.150;2023-04-22T15:39:26;99582.41;;;18.36;32.92
65151;BME280;51918;51.856;0.150;2023-04-22T15:44:26;99582.88;;;18.33;33.06
65151;BME280;51918;51.856;0.150;2023-04-22T15:49:27;99577.69;;;18.33;33.65
65151;BME280;51918;51.856;0.150;2023-04-22T15:54:29;99579.06;;;18.24;34.20
65151;BME280;51918;51.856;0.150;2023-04-22T15:59:30;99578.84;;;17.80;34.50
65151;BME280;51918;51.856;0.150;2023-04-22T16:04:30;99588.38;;;17.62;34.59
65151;BME280;51918;51.856;0.150;2023-04-22T16:09:32;99588.66;;;17.49;34.92
65151;BME280;51918;51.856;0.150;2023-04-22T16:14:33;99571.19;;;17.21;34.43
65151;BME280;51918;51.856;0.150;2023-04-22T16:19:34;99568.03;;;16.95;35.34
65151;BME280;51918;51.856;0.150;2023-04-22T16:24:37;99571.97;;;16.86;35.84
65151;BME280;51918;51.856;0.150;2023-04-22T16:29:37;99568.59;;;16.86;36.37
65151;BME280;51918;51.856;0.150;2023-04-22T16:34:38;99582.91;;;16.65;36.43
65151;BME280;51918;51.856;0.150;2023-04-22T16:39:40;99573.59;;;16.33;36.84
65151;BME280;51918;51.856;0.150;2023-04-22T16:44:40;99575.50;;;15.96;37.41
65151;BME280;51918;51.856;0.150;2023-04-22T16:49:41;99578.59;;;16.05;37.72
65151;BME280;51918;51.856;0.150;2023-04-22T16:54:44;99572.41;;;16.06;38.36
65151;BME280;51918;51.856;0.150;2023-04-22T16:59:53;99576.94;;;16.10;38.38
65151;BME280;51918;51.856;0.150;2023-04-22T17:04:54;99565.69;;;15.68;38.73
65151;BME280;51918;51.856;0.150;2023-04-22T17:09:56;99555.75;;;15.46;38.88
65151;BME280;51918;51.856;0.150;2023-04-22T17:14:57;99554.63;;;15.42;39.02
65151;BME280;51918;51.856;0.150;2023-04-22T17:19:57;99550.16;;;15.49;39.41
65151;BME280;51918;51.856;0.150;2023-04-22T17:24:59;99551.03;;;15.43;39.55
65151;BME280;51918;51.856;0.150;2023-04-22T17:30:06;99538.72;;;15.38;39.55
65151;BME280;51918;51.856;0.150;2023-04-22T17:35:13;99540.75;;;15.36;39.79
65151;BME280;51918;51.856;0.150;2023-04-22T17:40:19;99543.41;;;15.11;39.88
65151;BME280;51918;51.856;0.150;2023-04-22T17:45:19;99531.16;;;15.00;39.96
65151;BME280;51918;51.856;0.150;2023-04-22T17:50:20;99530.66;;;14.91;40.37
65151;BME280;51918;51.856;0.150;2023-04-22T17:55:23;99537.47;;;14.86;40.00
65151;BME280;51918;51.856;0.150;2023-04-22T18:00:24;99530.44;;;14.68;39.56
65151;BME280;51918;51.856;0.150;2023-04-22T18:05:45;99530.50;;;14.61;39.80
65151;BME280;51918;51.856;0.150;2023-04-22T18:16:03;99517.47;;;14.24;40.81
65151;BME280;51918;51.856;0.150;2023-04-22T18:21:24;99519.47;;;14.22;40.90
65151;BME280;51918;51.856;0.150;2023-04-22T18:26:50;99520.22;;;13.97;41.23
65151;BME280;51918;51.856;0.150;2023-04-22T18:31:51;99513.31;;;13.85;41.58
65151;BME280;51918;51.856;0.150;2023-04-22T18:37:04;99515.59;;;13.74;41.52
65151;BME280;51918;51.856;0.150;2023-04-22T18:42:06;99523.75;;;13.65;42.32
65151;BME280;51918;51.856;0.150;2023-04-22T18:47:25;99521.25;;;13.45;42.29
65151;BME280;51918;51.856;0.150;2023-04-22T18:52:26;99525.25;;;13.41;42.60
65151;BME280;51918;51.856;0.150;2023-04-22T18:57:28;99521.13;;;13.26;42.87
65151;BME280;51918;51.856;0.150;2023-04-22T19:02:29;99529.13;;;13.05;43.10
65151;BME280;51918;51.856;0.150;2023-04-22T19:07:29;99523.59;;;12.88;43.70
65151;BME280;51918;51.856;0.150;2023-04-22T19:12:43;99529.75;;;12.60;43.83
65151;BME280;51918;51.856;0.150;2023-04-22T19:17:44;99527.78;;;12.56;44.72
65151;BME280;51918;51.856;0.150;2023-04-22T19:22:45;99513.47;;;12.40;45.56
65151;BME280;51918;51.856;0.150;2023-04-22T19:27:47;99514.69;;;12.30;46.16
65151;BME280;51918;51.856;0.150;2023-04-22T19:33:27;99518.03;;;12.18;46.08
65151;BME280;51918;51.856;0.150;2023-04-22T19:38:27;99522.78;;;12.14;46.47
65151;BME280;51918;51.856;0.150;2023-04-22T19:43:29;99516.00;;;11.93;47.45
65151;BME280;51918;51.856;0.150;2023-04-22T19:48:42;99521.56;;;11.90;48.19
65151;BME280;51918;51.856;0.150;2023-04-22T19:53:44;99522.34;;;11.90;48.15
65151;BME280;51918;51.856;0.150;2023-04-22T19:58:46;99517.97;;;11.84;48.03
65151;BME280;51918;51.856;0.150;2023-04-22T20:03:59;99508.88;;;11.95;48.46
65151;BME280;51918;51.856;0.150;2023-04-22T20:09:01;99517.19;;;11.97;48.36
65151;BME280;51918;51.856;0.150;2023-04-22T20:14:06;99507.69;;;12.04;48.54
65151;BME280;51918;51.856;0.150;2023-04-22T20:19:08;99499.75;;;12.06;48.20
65151;BME280;51918;51.856;0.150;2023-04-22T20:24:08;99508.69;;;12.03;48.65
65151;BME280;51918;51.856;0.150;2023-04-22T20:29:43;99502.94;;;11.95;49.15
65151;BME280;51918;51.856;0.150;2023-04-22T20:34:44;99497.16;;;11.92;49.08
65151;BME280;51918;51.856;0.150;2023-04-22T20:39:46;99486.06;;;11.85;49.50
65151;BME280;51918;51.856;0.150;2023-04-22T20:45:11;99483.06;;;11.75;49.20
65151;BME280;51918;51.856;0.150;2023-04-22T20:50:11;99487.00;;;11.71;49.74
65151;BME280;51918;51.856;0.150;2023-04-22T20:55:12;99481.59;;;11.52;49.99
65151;BME280;51918;51.856;0.150;2023-04-22T21:00:14;99470.94;;;11.62;50.37
65151;BME280;51918;51.856;0.150;2023-04-22T21:05:27;99463.03;;;11.64;50.28
65151;BME280;51918;51.856;0.150;2023-04-22T21:10:28;99472.31;;;11.65;50.13
65151;BME280;51918;51.856;0.150;2023-04-22T21:15:53;99467.56;;;11.62;50.58
65151;BME280;51918;51.856;0.150;2023-04-22T21:20:55;99470.94;;;11.56;50.63
65151;BME280;51918;51.856;0.150;2023-04-22T21:26:05;99471.06;;;11.41;50.77
65151;BME280;51918;51.856;0.150;2023-04-22T21:31:18;99469.06;;;11.36;51.30
65151;BME280;51918;51.856;0.150;2023-04-22T21:36:24;99468.31;;;11.42;51.20
65151;BME280;51918;51.856;0.150;2023-04-22T21:41:25;99471.22;;;11.32;51.87
65151;BME280;51918;51.856;0.150;2023-04-22T21:46:43;99456.28;;;11.15;53.04
65151;BME280;51918;51.856;0.150;2023-04-22T21:51:50;99456.69;;;11.18;52.40
65151;BME280;51918;51.856;0.150;2023-04-22T21:56:51;99458.84;;;11.08;53.41
65151;BME280;51918;51.856;0.150;2023-04-22T22:02:32;99447.50;;;11.02;53.24
65151;BME280;51918;51.856;0.150;2023-04-22T22:07:33;99443.34;;;11.01;53.75
65151;BME280;51918;51.856;0.150;2023-04-22T22:12:52;99439.94;;;10.94;54.08
65151;BME280;51918;51.856;0.150;2023-04-22T22:17:55;99428.25;;;10.91;54.80
65151;BME280;51918;51.856;0.150;2023-04-22T22:22:55;99425.28;;;10.88;55.52
65151;BME280;51918;51.856;0.150;2023-04-22T22:27:56;99426.81;;;10.76;56.45
65151;BME280;51918;51.856;0.150;2023-04-22T22:33:21;99423.22;;;10.70;57.65
65151;BME280;51918;51.856;0.150;2023-04-22T22:38:21;99423.63;;;10.74;58.34
65151;BME280;51918;51.856;0.150;2023-04-22T22:43:35;99417.91;;;10.78;59.71
65151;BME280;51918;51.856;0.150;2023-04-22T22:48:40;99407.41;;;10.80;59.32
65151;BME280;51918;51.856;0.150;2023-04-22T22:53:47;99417.19;;;10.56;59.97
65151;BME280;51918;51.856;0.150;2023-04-22T22:58:48;99408.81;;;10.47;61.07
65151;BME280;51918;51.856;0.150;2023-04-22T23:04:02;99403.75;;;10.54;61.08
65151;BME280;51918;51.856;0.150;2023-04-22T23:09:03;99400.75;;;10.50;61.10
65151;BME280;51918;51.856;0.150;2023-04-22T23:14:03;99398.50;;;10.41;61.55
65151;BME280;51918;51.856;0.150;2023-04-22T23:19:10;99391.38;;;10.43;62.46
65151;BME280;51918;51.856;0.150;2023-04-22T23:24:21;99386.25;;;10.43;63.00
65151;BME280;51918;51.856;0.150;2023-04-22T23:29:35;99374.81;;;10.45;64.16
65151;BME280;51918;51.856;0.150;2023-04-22T23:34:38;99374.75;;;10.39;65.00
65151;BME280;51918;51.856;0.150;2023-04-22T23:39:58;99358.25;;;10.20;67.59
65151;BME280;51918;51.856;0.150;2023-04-22T23:44:59;99362.22;;;10.22;69.19
65151;BME280;51918;51.856;0.150;2023-04-22T23:50:01;99356.38;;;10.07;73.12
65151;BME280;51918;51.856;0.150;2023-04-22T23:55:05;99345.41;;;10.20;73.02
